Time,TemperatureF,DewpointF,PressureIn,WindDirection,WindDirectionDegrees,WindSpeedMPH,WindSpeedGustMPH,Humidity,HourlyPrecipIn,Conditions,Clouds,dailyrainin,SoftwareType,DateUTC
2013-03-18 00:00:00,35.8,22.1,30.25,ENE,65,1.0,3.0,57,0.00,,---,0.00,VWS V14.01,2013-03-18 04:00:00,
2013-03-18 00:05:00,35.8,22.1,30.25,ENE,66,1.0,3.0,57,0.00,,---,0.00,VWS V14.01,2013-03-18 04:05:00,
2013-03-18 00:10:00,35.8,22.1,30.25,ENE,77,0.0,4.0,57,0.00,,---,0.00,VWS V14.01,2013-03-18 04:10:00,
2013-03-18 00:15:00,35.8,22.1,30.25,NE,41,0.0,7.0,57,0.00,,---,0.00,VWS V14.01,2013-03-18 04:15:00,
2013-03-18 00:20:00,35.8,22.1,30.25,NE,53,5.0,7.0,57,0.00,,---,0.00,VWS V14.01,2013-03-18 04:20:00,
2013-03-18 00:25:00,35.7,22.0,30.25,NNE,26,3.0,7.0,57,0.00,,---,0.00,VWS V14.01,2013-03-18 04:25:00,
2013-03-18 00:30:00,35.7,22.0,30.24,NE,38,0.0,1.0,57,0.00,,---,0.00,VWS V14.01,2013-03-18 04:30:00,
2013-03-18 00:35:00,35.6,22.3,30.25,NE,53,2.0,4.0,58,0.00,,---,0.00,VWS V14.01,2013-03-18 04:35:00,
2013-03-18 00:40:00,35.5,22.2,30.25,SE,125,3.0,6.0,58,0.00,,---,0.00,VWS V14.01,2013-03-18 04:40:00,
2013-03-18 00:45:00,35.4,22.1,30.25,ENE,74,1.0,6.0,58,0.00,,---,0.00,VWS V14.01,2013-03-18 04:45:00,
2013-03-18 00:50:00,35.4,22.1,30.25,NNE,26,2.0,6.0,58,0.00,,---,0.00,VWS V14.01,2013-03-18 04:50:00,
2013-03-18 00:55:00,35.3,22.0,30.25,NE,44,0.0,6.0,58,0.00,,---,0.00,VWS V14.01,2013-03-18 04:55:00,
2013-03-18 01:00:00,35.3,22.0,30.25,NNE,29,0.0,0.0,58,0.00,,---,0.00,VWS V14.01,2013-03-18 05:00:00,
2013-03-18 01:05:00,35.3,22.0,30.25,NE,35,0.0,3.0,58,0.00,,---,0.00,VWS V14.01,2013-03-18 05:05:00,
2013-03-18 01:10:00,35.2,21.9,30.25,East,80,7.0,7.0,58,0.00,,---,0.00,VWS V14.01,2013-03-18 05:10:00,
2013-03-18 01:14:00,35.2,21.9,30.25,NE,44,0.0,7.0,58,0.00,,---,0.00,VWS V14.01,2013-03-18 05:14:00,
2013-03-18 01:19:00,35.1,21.4,30.25,ENE,68,0.0,7.0,57,0.00,,---,0.00,VWS V14.01,2013-03-18 05:19:00,
2013-03-18 01:24:00,35.1,21.4,30.26,NE,43,0.0,7.0,57,0.00,,---,0.00,VWS V14.01,2013-03-18 05:24:00,
2013-03-18 01:29:00,35.0,21.3,30.26,North,5,0.0,1.0,57,0.00,,---,0.00,VWS V14.01,2013-03-18 05:29:00,
2013-03-18 01:30:00,35.0,21.3,30.26,North,5,1.0,7.0,57,0.00,,---,0.00,VWS V15.00,2013-03-18 05:30:00,
2013-03-18 01:34:00,34.9,21.6,30.26,North,5,0.0,1.0,58,0.00,,---,0.00,VWS V14.01,2013-03-18 05:34:00,
2013-03-18 01:39:00,34.8,21.5,30.27,East,86,0.0,2.0,58,0.00,,---,0.00,VWS V14.01,2013-03-18 05:39:00,
2013-03-18 01:44:00,34.8,22.0,30.27,East,86,0.0,2.0,59,0.00,,---,0.00,VWS V14.01,2013-03-18 05:44:00,
2013-03-18 01:49:00,34.7,22.2,30.27,East,86,0.0,2.0,60,0.00,,---,0.00,VWS V14.01,2013-03-18 05:49:00,
2013-03-18 01:54:00,34.5,22.5,30.27,East,86,0.0,2.0,61,0.00,,---,0.00,VWS V14.01,2013-03-18 05:54:00,
2013-03-18 01:59:00,34.3,21.9,30.27,East,84,0.0,0.0,60,0.00,,---,0.00,VWS V14.01,2013-03-18 05:59:00,
2013-03-18 02:00:00,35.3,22.0,30.25,NNE,29,0.0,6.0,58,0.00,,---,0.00,VWS V14.01,2013-03-18 06:00:00,
2013-03-18 02:04:00,34.2,22.2,30.28,East,84,0.0,0.0,61,0.00,,---,0.00,VWS V14.01,2013-03-18 06:04:00,
2013-03-18 02:09:00,34.0,22.0,30.28,East,84,0.0,0.0,61,0.00,,---,0.00,VWS V14.01,2013-03-18 06:09:00,
2013-03-18 02:14:00,33.9,22.3,30.28,East,84,0.0,0.0,62,0.00,,---,0.00,VWS V14.01,2013-03-18 06:14:00,
2013-03-18 02:19:00,33.8,22.9,30.28,East,84,0.0,0.0,64,0.00,,---,0.00,VWS V14.01,2013-03-18 06:19:00,
2013-03-18 02:24:00,33.6,22.7,30.28,East,84,0.0,0.0,64,0.00,,---,0.00,VWS V14.01,2013-03-18 06:24:00,
2013-03-18 02:29:00,33.5,22.6,30.28,East,84,0.0,0.0,64,0.00,,---,0.00,VWS V14.01,2013-03-18 06:29:00,
2013-03-18 02:30:00,35.0,21.3,30.26,North,5,1.0,7.0,57,0.00,,---,0.00,VWS V14.01,2013-03-18 06:30:00,
2013-03-18 02:34:00,33.2,22.4,30.28,East,84,0.0,0.0,64,0.00,,---,0.00,VWS V14.01,2013-03-18 06:34:00,
2013-03-18 02:39:00,33.0,22.9,30.28,East,84,0.0,0.0,66,0.00,,---,0.00,VWS V14.01,2013-03-18 06:39:00,
2013-03-18 02:44:00,32.9,23.2,30.27,East,84,0.0,0.0,67,0.00,,---,0.00,VWS V14.01,2013-03-18 06:44:00,
2013-03-18 02:49:00,32.6,22.5,30.28,East,84,0.0,0.0,66,0.00,,---,0.00,VWS V14.01,2013-03-18 06:49:00,
2013-03-18 02:54:00,32.4,22.0,30.28,East,84,0.0,1.0,65,0.00,,---,0.00,VWS V14.01,2013-03-18 06:54:00,
2013-03-18 02:59:00,32.3,22.2,30.27,East,84,0.0,0.0,66,0.00,,---,0.00,VWS V14.01,2013-03-18 06:59:00,
2013-03-18 03:00:00,34.3,21.9,30.27,East,84,0.0,2.0,60,0.00,,---,0.00,VWS V14.01,2013-03-18 07:00:00,
2013-03-18 03:04:00,32.1,22.0,30.27,East,84,0.0,0.0,66,0.00,,---,0.00,VWS V14.01,2013-03-18 07:04:00,
2013-03-18 03:09:00,31.9,22.5,30.27,East,84,0.0,1.0,68,0.00,,---,0.00,VWS V14.01,2013-03-18 07:09:00,
2013-03-18 03:14:00,31.8,22.1,30.28,East,84,0.0,1.0,67,0.00,,---,0.00,VWS V14.01,2013-03-18 07:14:00,
2013-03-18 03:19:00,31.8,22.5,30.28,WNW,300,0.0,2.0,68,0.00,,---,0.00,VWS V14.01,2013-03-18 07:19:00,
2013-03-18 03:24:00,31.8,22.1,30.28,NNW,335,0.0,2.0,67,0.00,,---,0.00,VWS V14.01,2013-03-18 07:24:00,
2013-03-18 03:29:00,31.9,22.5,30.28,NNW,335,0.0,1.0,68,0.00,,---,0.00,VWS V14.01,2013-03-18 07:29:00,
2013-03-18 03:30:00,31.9,22.5,30.28,NNW,335,1.0,2.0,68,0.00,,---,0.00,VWS V15.00,2013-03-18 07:30:00,
2013-03-18 03:34:00,32.1,22.8,30.27,NW,318,2.0,3.0,68,0.00,,---,0.00,VWS V14.01,2013-03-18 07:34:00,
2013-03-18 03:39:00,32.4,22.3,30.27,NNE,22,1.0,4.0,66,0.00,,---,0.00,VWS V14.01,2013-03-18 07:39:00,
2013-03-18 03:44:00,32.6,22.5,30.27,NNE,21,0.0,4.0,66,0.00,,---,0.00,VWS V14.01,2013-03-18 07:44:00,
2013-03-18 03:49:00,32.8,22.7,30.27,NNE,21,0.0,4.0,66,0.00,,---,0.00,VWS V14.01,2013-03-18 07:49:00,
2013-03-18 03:54:00,32.9,22.4,30.27,NNE,28,0.0,4.0,65,0.00,,---,0.00,VWS V14.01,2013-03-18 07:54:00,
2013-03-18 03:59:00,33.0,22.2,30.27,NE,40,0.0,4.0,64,0.00,,---,0.00,VWS V14.01,2013-03-18 07:59:00,
2013-03-18 04:00:00,32.3,22.2,30.27,East,84,0.0,1.0,66,0.00,,---,0.00,VWS V14.01,2013-03-18 08:00:00,
2013-03-18 04:04:00,33.1,22.3,30.27,NNE,32,2.0,4.0,64,0.00,,---,0.00,VWS V14.01,2013-03-18 08:04:00,
2013-03-18 04:09:00,33.2,22.0,30.27,NE,34,1.0,4.0,63,0.00,,---,0.00,VWS V14.01,2013-03-18 08:09:00,
2013-03-18 04:14:00,33.3,22.1,30.27,NE,39,2.0,5.0,63,0.00,,---,0.00,VWS V14.01,2013-03-18 08:14:00,
2013-03-18 04:19:00,33.4,22.2,30.27,NE,36,0.0,5.0,63,0.00,,---,0.00,VWS V14.01,2013-03-18 08:19:00,
2013-03-18 04:24:00,33.4,22.2,30.26,NE,56,1.0,5.0,63,0.00,,---,0.00,VWS V14.01,2013-03-18 08:24:00,
2013-03-18 04:29:00,33.5,21.9,30.26,North,10,0.0,5.0,62,0.00,,---,0.00,VWS V14.01,2013-03-18 08:29:00,
2013-03-18 04:30:00,33.5,21.9,30.26,North,10,0.0,5.0,62,0.00,,---,0.00,VWS V15.00,2013-03-18 08:30:00,
2013-03-18 04:34:00,33.5,21.9,30.26,NNE,26,0.0,5.0,62,0.00,,---,0.00,VWS V14.01,2013-03-18 08:34:00,
2013-03-18 04:39:00,33.5,21.9,30.26,NE,44,1.0,5.0,62,0.00,,---,0.00,VWS V14.01,2013-03-18 08:39:00,
2013-03-18 04:44:00,33.6,22.0,30.26,NE,38,0.0,5.0,62,0.00,,---,0.00,VWS V14.01,2013-03-18 08:44:00,
2013-03-18 04:49:00,33.6,22.4,30.26,NE,40,0.0,5.0,63,0.00,,---,0.00,VWS V14.01,2013-03-18 08:49:00,
2013-03-18 04:54:00,33.6,22.4,30.27,East,94,1.0,5.0,63,0.00,,---,0.00,VWS V14.01,2013-03-18 08:54:00,
2013-03-18 04:59:00,33.7,22.5,30.27,NE,46,0.0,5.0,63,0.00,,---,0.00,VWS V14.01,2013-03-18 08:59:00,
2013-03-18 05:00:00,33.7,22.5,30.27,NE,46,0.0,5.0,63,0.00,,---,0.00,VWS V15.00,2013-03-18 09:00:00,
2013-03-18 05:04:00,33.7,22.8,30.27,NE,46,1.0,2.0,64,0.00,,---,0.00,VWS V14.01,2013-03-18 09:04:00,
2013-03-18 05:09:00,33.7,22.5,30.28,NE,46,0.0,3.0,63,0.00,,---,0.00,VWS V14.01,2013-03-18 09:09:00,
2013-03-18 05:14:00,33.7,22.8,30.28,NE,46,1.0,3.0,64,0.00,,---,0.00,VWS V14.01,2013-03-18 09:14:00,
2013-03-18 05:19:00,33.7,22.8,30.28,ENE,67,0.0,3.0,64,0.00,,---,0.00,VWS V14.01,2013-03-18 09:19:00,
2013-03-18 05:24:00,33.6,23.1,30.27,NE,39,0.0,3.0,65,0.00,,---,0.00,VWS V14.01,2013-03-18 09:24:00,
2013-03-18 05:29:00,33.5,22.6,30.28,NE,38,2.0,3.0,64,0.00,,---,0.00,VWS V14.01,2013-03-18 09:29:00,
2013-03-18 05:30:00,33.5,22.6,30.28,NE,38,2.0,3.0,64,0.00,,---,0.00,VWS V15.00,2013-03-18 09:30:00,
2013-03-18 05:34:00,33.5,23.0,30.28,NNE,26,1.0,4.0,65,0.00,,---,0.00,VWS V14.01,2013-03-18 09:34:00,
2013-03-18 05:39:00,33.5,23.0,30.28,NE,38,0.0,4.0,65,0.00,,---,0.00,VWS V14.01,2013-03-18 09:39:00,
2013-03-18 05:44:00,33.5,23.4,30.28,NE,38,0.0,4.0,66,0.00,,---,0.00,VWS V14.01,2013-03-18 09:44:00,
2013-03-18 05:49:00,33.5,23.4,30.28,NE,46,1.0,4.0,66,0.00,,---,0.00,VWS V14.01,2013-03-18 09:49:00,
2013-03-18 05:54:00,33.5,23.4,30.28,North,355,1.0,4.0,66,0.00,,---,0.00,VWS V14.01,2013-03-18 09:54:00,
2013-03-18 05:59:00,33.5,23.4,30.28,NE,56,0.0,4.0,66,0.00,,---,0.00,VWS V14.01,2013-03-18 09:59:00,
2013-03-18 06:00:00,33.7,22.5,30.27,NE,46,0.0,5.0,63,0.00,,---,0.00,VWS V14.01,2013-03-18 10:00:00,
2013-03-18 06:04:00,33.5,23.7,30.28,East,84,0.0,3.0,67,0.00,,---,0.00,VWS V14.01,2013-03-18 10:04:00,
2013-03-18 06:09:00,33.7,24.3,30.28,ENE,75,0.0,3.0,68,0.00,,---,0.00,VWS V14.01,2013-03-18 10:09:00,
2013-03-18 06:14:00,33.8,24.7,30.29,North,5,0.0,3.0,69,0.00,,---,0.00,VWS V14.01,2013-03-18 10:14:00,
2013-03-18 06:19:00,33.9,24.8,30.29,North,5,0.0,3.0,69,0.00,,---,0.00,VWS V14.01,2013-03-18 10:19:00,
2013-03-18 06:24:00,34.2,26.1,30.29,ESE,111,3.0,4.0,72,0.00,,---,0.00,VWS V14.01,2013-03-18 10:24:00,
2013-03-18 06:29:00,34.9,27.5,30.29,East,94,0.0,11.0,74,0.00,,---,0.00,VWS V14.01,2013-03-18 10:29:00,
2013-03-18 06:30:00,34.9,27.5,30.29,East,94,0.0,11.0,74,0.00,,---,0.00,VWS V15.00,2013-03-18 10:30:00,
2013-03-18 06:34:00,35.9,27.8,30.29,East,94,3.0,10.0,72,0.00,,---,0.00,VWS V14.01,2013-03-18 10:34:00,
2013-03-18 06:39:00,36.6,27.8,30.29,ESE,113,5.0,10.0,70,0.00,,---,0.00,VWS V14.01,2013-03-18 10:39:00,
2013-03-18 06:44:00,36.9,27.7,30.30,NW,316,3.0,12.0,69,0.00,,---,0.00,VWS V14.01,2013-03-18 10:44:00,
2013-03-18 06:49:00,37.1,27.9,30.30,ENE,74,4.0,14.0,69,0.00,,---,0.00,VWS V14.01,2013-03-18 10:49:00,
2013-03-18 06:54:00,37.2,27.6,30.30,ENE,76,8.0,14.0,68,0.00,,---,0.00,VWS V14.01,2013-03-18 10:54:00,
2013-03-18 06:59:00,37.3,27.7,30.30,East,82,7.0,14.0,68,0.00,,---,0.00,VWS V14.01,2013-03-18 10:59:00,
2013-03-18 07:00:00,33.5,23.4,30.28,NE,56,0.0,4.0,66,0.00,,---,0.00,VWS V14.01,2013-03-18 11:00:00,
2013-03-18 07:04:00,37.3,27.4,30.30,ESE,110,3.0,10.0,67,0.00,,---,0.00,VWS V14.01,2013-03-18 11:04:00,
2013-03-18 07:09:00,37.2,27.3,30.30,NE,42,3.0,10.0,67,0.00,,---,0.00,VWS V14.01,2013-03-18 11:09:00,
2013-03-18 07:14:00,37.2,27.3,30.30,NNW,333,0.0,10.0,67,0.00,,---,0.00,VWS V14.01,2013-03-18 11:14:00,
2013-03-18 07:19:00,37.2,27.3,30.31,SSE,149,3.0,10.0,67,0.00,,---,0.00,VWS V14.01,2013-03-18 11:19:00,
2013-03-18 07:24:00,37.2,27.3,30.31,East,81,2.0,11.0,67,0.00,,---,0.00,VWS V14.01,2013-03-18 11:24:00,
2013-03-18 07:29:00,37.2,27.3,30.31,East,82,6.0,11.0,67,0.00,,---,0.00,VWS V14.01,2013-03-18 11:29:00,
2013-03-18 07:30:00,34.9,27.5,30.29,East,94,0.0,11.0,74,0.00,,---,0.00,VWS V14.01,2013-03-18 11:30:00,
2013-03-18 07:34:00,37.1,26.8,30.31,ENE,68,5.0,13.0,66,0.00,,---,0.00,VWS V14.01,2013-03-18 11:34:00,
2013-03-18 07:39:00,37.1,26.8,30.31,ENE,63,2.0,13.0,66,0.00,,---,0.00,VWS V14.01,2013-03-18 11:39:00,
2013-03-18 07:44:00,37.1,26.4,30.31,ESE,109,2.0,13.0,65,0.00,,---,0.00,VWS V14.01,2013-03-18 11:44:00,
2013-03-18 07:49:00,37.1,26.4,30.31,ENE,63,2.0,13.0,65,0.00,,---,0.00,VWS V14.01,2013-03-18 11:49:00,
2013-03-18 07:54:00,37.1,26.4,30.32,ENE,68,9.0,13.0,65,0.00,,---,0.00,VWS V14.01,2013-03-18 11:54:00,
2013-03-18 07:59:00,37.1,26.4,30.31,ESE,111,1.0,13.0,65,0.00,,---,0.00,VWS V14.01,2013-03-18 11:59:00,
2013-03-18 08:00:00,37.3,27.7,30.30,ENE,71,5.0,14.0,68,0.00,,---,0.00,VWS V14.01,2013-03-18 12:00:00,
2013-03-18 08:04:00,37.1,26.4,30.32,NE,42,3.0,13.0,65,0.00,,---,0.00,VWS V14.01,2013-03-18 12:04:00,
2013-03-18 08:09:00,37.1,26.1,30.32,ESE,118,2.0,13.0,64,0.00,,---,0.00,VWS V14.01,2013-03-18 12:09:00,
2013-03-18 08:14:00,37.2,26.9,30.32,ENE,61,5.0,13.0,66,0.00,,---,0.00,VWS V14.01,2013-03-18 12:14:00,
2013-03-18 08:19:00,37.3,26.3,30.32,ESE,117,2.0,13.0,64,0.00,,---,0.00,VWS V14.01,2013-03-18 12:19:00,
2013-03-18 08:24:00,37.3,27.0,30.32,NE,46,5.0,13.0,66,0.00,,---,0.00,VWS V14.01,2013-03-18 12:24:00,
2013-03-18 08:29:00,37.4,26.7,30.32,ESE,115,2.0,13.0,65,0.00,,---,0.00,VWS V14.01,2013-03-18 12:29:00,
2013-03-18 08:30:00,37.4,26.7,30.32,ESE,112,4.0,13.0,65,0.00,,---,0.00,VWS V15.00,2013-03-18 12:30:00,
2013-03-18 08:34:00,37.5,26.8,30.32,ESE,108,3.0,9.0,65,0.00,,---,0.00,VWS V14.01,2013-03-18 12:34:00,
2013-03-18 08:39:00,37.6,27.3,30.32,East,96,5.0,9.0,66,0.00,,---,0.00,VWS V14.01,2013-03-18 12:39:00,
2013-03-18 08:44:00,37.6,26.9,30.31,NNE,23,4.0,10.0,65,0.00,,---,0.00,VWS V14.01,2013-03-18 12:44:00,
2013-03-18 08:49:00,37.7,27.0,30.31,ESE,105,7.0,10.0,65,0.00,,---,0.00,VWS V14.01,2013-03-18 12:49:00,
2013-03-18 08:54:00,37.7,27.4,30.31,NNE,25,1.0,10.0,66,0.00,,---,0.00,VWS V14.01,2013-03-18 12:54:00,
2013-03-18 08:59:00,37.7,27.0,30.31,NE,35,1.0,10.0,65,0.00,,---,0.00,VWS V14.01,2013-03-18 12:59:00,
2013-03-18 09:00:00,37.7,27.0,30.31,East,94,5.0,10.0,65,0.00,,---,0.00,VWS V15.00,2013-03-18 13:00:00,
2013-03-18 09:04:00,37.8,26.7,30.31,ENE,75,3.0,8.0,64,0.00,,---,0.00,VWS V14.01,2013-03-18 13:04:00,
2013-03-18 09:09:00,37.9,27.2,30.30,ESE,104,11.0,11.0,65,0.00,,---,0.00,VWS V14.01,2013-03-18 13:09:00,
2013-03-18 09:14:00,38.0,26.9,30.30,ENE,70,3.0,11.0,64,0.00,,---,0.00,VWS V14.01,2013-03-18 13:14:00,
2013-03-18 09:19:00,38.1,27.4,30.30,SSE,148,2.0,11.0,65,0.00,,---,0.00,VWS V14.01,2013-03-18 13:19:00,
2013-03-18 09:24:00,38.2,27.9,30.29,ENE,75,5.0,11.0,66,0.00,,---,0.00,VWS V14.01,2013-03-18 13:24:00,
2013-03-18 09:29:00,38.4,27.7,30.30,ESE,110,2.0,11.0,65,0.00,,---,0.00,VWS V14.01,2013-03-18 13:29:00,
2013-03-18 09:30:00,38.4,27.7,30.30,SE,130,6.0,11.0,65,0.00,,---,0.00,VWS V15.00,2013-03-18 13:30:00,
2013-03-18 09:34:00,38.5,27.4,30.29,NE,56,2.0,8.0,64,0.00,,---,0.00,VWS V14.01,2013-03-18 13:34:00,
2013-03-18 09:39:00,38.6,27.5,30.29,NE,47,3.0,10.0,64,0.00,,---,0.00,VWS V14.01,2013-03-18 13:39:00,
2013-03-18 09:44:00,38.7,27.6,30.29,East,101,2.0,10.0,64,0.00,,---,0.00,VWS V14.01,2013-03-18 13:44:00,
2013-03-18 09:49:00,38.9,27.8,30.29,East,92,5.0,10.0,64,0.00,,---,0.00,VWS V14.01,2013-03-18 13:49:00,
2013-03-18 09:54:00,39.1,27.6,30.28,East,84,3.0,10.0,63,0.00,,---,0.00,VWS V14.01,2013-03-18 13:54:00,
2013-03-18 09:59:00,39.3,27.8,30.28,East,101,5.0,10.0,63,0.00,,---,0.00,VWS V14.01,2013-03-18 13:59:00,
2013-03-18 10:00:00,37.7,27.0,30.31,East,94,5.0,10.0,65,0.00,,---,0.00,VWS V14.01,2013-03-18 14:00:00,
2013-03-18 10:04:00,39.3,27.8,30.28,East,87,7.0,10.0,63,0.00,,---,0.00,VWS V14.01,2013-03-18 14:04:00,
2013-03-18 10:09:00,39.4,28.2,30.29,ENE,78,5.0,10.0,64,0.00,,---,0.00,VWS V14.01,2013-03-18 14:09:00,
2013-03-18 10:14:00,39.5,28.4,30.28,ESE,116,4.0,10.0,64,0.00,,---,0.00,VWS V14.01,2013-03-18 14:14:00,
2013-03-18 10:19:00,39.5,28.4,30.28,ESE,113,2.0,10.0,64,0.00,,---,0.00,VWS V14.01,2013-03-18 14:19:00,
2013-03-18 10:24:00,39.6,28.8,30.28,ENE,61,0.0,10.0,65,0.00,,---,0.00,VWS V14.01,2013-03-18 14:24:00,
2013-03-18 10:29:00,39.7,28.9,30.28,SE,130,7.0,10.0,65,0.00,,---,0.00,VWS V14.01,2013-03-18 14:29:00,
2013-03-18 10:30:00,38.4,27.7,30.30,SE,130,6.0,11.0,65,0.00,,---,0.00,VWS V14.01,2013-03-18 14:30:00,
2013-03-18 10:34:00,39.8,29.4,30.28,ENE,63,1.0,8.0,66,0.00,,---,0.00,VWS V14.01,2013-03-18 14:34:00,
2013-03-18 10:39:00,39.9,29.5,30.28,NNE,29,2.0,9.0,66,0.00,,---,0.00,VWS V14.01,2013-03-18 14:39:00,
2013-03-18 10:44:00,39.9,29.5,30.28,East,98,6.0,10.0,66,0.00,,---,0.00,VWS V14.01,2013-03-18 14:44:00,
2013-03-18 10:49:00,39.8,29.4,30.28,East,86,5.0,10.0,66,0.00,,---,0.00,VWS V14.01,2013-03-18 14:49:00,
2013-03-18 10:54:00,39.8,29.8,30.27,East,96,1.0,10.0,67,0.00,,---,0.00,VWS V14.01,2013-03-18 14:54:00,
2013-03-18 10:59:00,39.8,29.8,30.27,NNE,28,2.0,10.0,67,0.00,,---,0.00,VWS V14.01,2013-03-18 14:59:00,
2013-03-18 11:00:00,39.3,27.8,30.28,NE,55,5.0,10.0,63,0.00,,---,0.00,VWS V14.01,2013-03-18 15:00:00,
2013-03-18 11:04:00,39.8,30.1,30.27,ENE,69,5.0,8.0,68,0.00,,---,0.00,VWS V14.01,2013-03-18 15:04:00,
2013-03-18 11:09:00,39.9,30.2,30.27,NE,53,3.0,8.0,68,0.00,,---,0.00,VWS V14.01,2013-03-18 15:09:00,
2013-03-18 11:14:00,39.8,29.8,30.26,East,101,5.0,9.0,67,0.00,,---,0.00,VWS V14.01,2013-03-18 15:14:00,
2013-03-18 11:19:00,39.8,30.1,30.26,ENE,67,3.0,9.0,68,0.00,,---,0.00,VWS V14.01,2013-03-18 15:19:00,
2013-03-18 11:24:00,39.7,30.4,30.26,NE,53,2.0,9.0,69,0.00,,---,0.00,VWS V14.01,2013-03-18 15:24:00,
2013-03-18 11:29:00,39.7,30.4,30.26,East,81,1.0,10.0,69,0.00,,---,0.00,VWS V14.01,2013-03-18 15:29:00,
2013-03-18 11:30:00,39.8,29.0,30.28,SE,130,4.0,10.0,65,0.00,,---,0.00,VWS V14.01,2013-03-18 15:30:00,
2013-03-18 11:34:00,39.7,30.7,30.26,NE,49,4.0,7.0,70,0.00,,---,0.00,VWS V14.01,2013-03-18 15:34:00,
2013-03-18 11:39:00,39.6,30.6,30.25,ENE,57,4.0,9.0,70,0.00,,---,0.00,VWS V14.01,2013-03-18 15:39:00,
2013-03-18 11:44:00,39.5,30.9,30.25,East,79,6.0,9.0,71,0.00,,---,0.00,VWS V14.01,2013-03-18 15:44:00,
2013-03-18 11:49:00,39.4,30.8,30.25,NNE,25,1.0,11.0,71,0.00,,---,0.00,VWS V14.01,2013-03-18 15:49:00,
2013-03-18 11:54:00,39.4,30.8,30.25,ESE,107,10.0,11.0,71,0.00,,---,0.00,VWS V14.01,2013-03-18 15:54:00,
2013-03-18 11:59:00,39.5,31.2,30.25,East,96,8.0,11.0,72,0.00,,---,0.00,VWS V14.01,2013-03-18 15:59:00,
2013-03-18 12:00:00,39.8,29.8,30.27,ESE,121,3.0,10.0,67,0.00,,---,0.00,VWS V14.01,2013-03-18 16:00:00,
2013-03-18 12:03:00,39.5,31.2,30.25,ESE,120,3.0,10.0,72,0.00,,---,0.00,VWS V14.01,2013-03-18 16:03:00,
2013-03-18 12:08:00,39.6,31.7,30.25,ENE,57,3.0,10.0,73,0.00,,---,0.00,VWS V14.01,2013-03-18 16:08:00,
2013-03-18 12:13:00,39.7,31.8,30.25,NE,51,7.0,11.0,73,0.00,,---,0.00,VWS V14.01,2013-03-18 16:13:00,
2013-03-18 12:18:00,39.8,31.9,30.25,NE,46,6.0,11.0,73,0.00,,---,0.00,VWS V14.01,2013-03-18 16:18:00,
2013-03-18 12:23:00,39.9,31.6,30.24,NE,36,5.0,11.0,72,0.00,,---,0.00,VWS V14.01,2013-03-18 16:23:00,
2013-03-18 12:28:00,39.9,32.0,30.24,ESE,117,4.0,13.0,73,0.00,,---,0.00,VWS V14.01,2013-03-18 16:28:00,
2013-03-18 12:30:00,39.7,30.4,30.26,East,95,6.0,10.0,69,0.00,,---,0.00,VWS V14.01,2013-03-18 16:30:00,
2013-03-18 12:33:00,39.9,32.6,30.24,ESE,107,10.0,14.0,75,0.00,,---,0.00,VWS V14.01,2013-03-18 16:33:00,
2013-03-18 12:38:00,39.8,32.5,30.23,East,84,3.0,14.0,75,0.00,,---,0.00,VWS V14.01,2013-03-18 16:38:00,
2013-03-18 12:43:00,39.8,32.9,30.23,SE,134,4.0,14.0,76,0.00,,---,0.00,VWS V14.01,2013-03-18 16:43:00,
2013-03-18 12:48:00,39.8,33.2,30.23,ENE,76,11.0,14.0,77,0.00,,---,0.00,VWS V14.01,2013-03-18 16:48:00,
2013-03-18 12:53:00,39.8,33.2,30.22,ENE,65,5.0,14.0,77,0.00,,---,0.00,VWS V14.01,2013-03-18 16:53:00,
2013-03-18 12:58:00,39.8,33.5,30.21,ENE,67,3.0,14.0,78,0.00,,---,0.00,VWS V14.01,2013-03-18 16:58:00,
2013-03-18 13:00:00,39.8,33.5,30.21,East,86,6.0,14.0,78,0.00,,---,0.00,VWS V15.00,2013-03-18 17:00:00,
2013-03-18 13:03:00,39.8,33.8,30.20,ESE,102,4.0,11.0,79,0.00,,---,0.00,VWS V14.01,2013-03-18 17:03:00,
2013-03-18 13:08:00,39.9,33.9,30.20,East,91,5.0,11.0,79,0.00,,---,0.00,VWS V14.01,2013-03-18 17:08:00,
2013-03-18 13:13:00,40.0,34.3,30.20,East,81,3.0,11.0,80,0.00,,---,0.00,VWS V14.01,2013-03-18 17:13:00,
2013-03-18 13:18:00,40.1,34.4,30.20,ENE,75,7.0,11.0,80,0.00,,---,0.00,VWS V14.01,2013-03-18 17:18:00,
2013-03-18 13:23:00,40.1,34.4,30.19,East,86,10.0,12.0,80,0.00,,---,0.00,VWS V14.01,2013-03-18 17:23:00,
2013-03-18 13:28:00,40.0,34.7,30.19,ENE,71,2.0,12.0,81,0.00,,---,0.00,VWS V14.01,2013-03-18 17:28:00,
2013-03-18 13:30:00,40.0,34.7,30.19,East,92,5.0,12.0,81,0.00,,---,0.00,VWS V15.00,2013-03-18 17:30:00,
2013-03-18 13:33:00,40.1,34.8,30.19,East,91,1.0,10.0,81,0.00,,---,0.00,VWS V14.01,2013-03-18 17:33:00,
2013-03-18 13:38:00,40.0,35.0,30.18,SSE,150,4.0,13.0,82,0.00,,---,0.00,VWS V14.01,2013-03-18 17:38:00,
2013-03-18 13:43:00,39.9,34.9,30.18,SE,131,0.0,13.0,82,0.00,,---,0.00,VWS V14.01,2013-03-18 17:43:00,
2013-03-18 13:48:00,39.9,35.2,30.17,NE,56,11.0,13.0,83,0.00,,---,0.00,VWS V14.01,2013-03-18 17:48:00,
2013-03-18 13:53:00,39.9,35.2,30.17,East,83,7.0,14.0,83,0.00,,---,0.00,VWS V14.01,2013-03-18 17:53:00,
2013-03-18 13:58:00,39.8,35.1,30.17,SE,133,4.0,14.0,83,0.00,,---,0.00,VWS V14.01,2013-03-18 17:58:00,
2013-03-18 14:00:00,39.8,35.1,30.17,ESE,107,3.0,14.0,83,0.00,,---,0.00,VWS V15.00,2013-03-18 18:00:00,
2013-03-18 14:03:00,39.8,35.4,30.17,East,94,2.0,11.0,84,0.00,,---,0.00,VWS V14.01,2013-03-18 18:03:00,
2013-03-18 14:08:00,39.8,35.1,30.16,East,86,2.0,11.0,83,0.00,,---,0.00,VWS V14.01,2013-03-18 18:08:00,
2013-03-18 14:13:00,39.8,35.4,30.16,ESE,109,2.0,11.0,84,0.00,,---,0.00,VWS V14.01,2013-03-18 18:13:00,
2013-03-18 14:18:00,39.8,35.4,30.16,East,90,9.0,11.0,84,0.00,,---,0.00,VWS V14.01,2013-03-18 18:18:00,
2013-03-18 14:23:00,39.8,35.4,30.15,SE,129,9.0,11.0,84,0.00,,---,0.00,VWS V14.01,2013-03-18 18:23:00,
2013-03-18 14:28:00,39.9,35.5,30.15,NE,49,7.0,11.0,84,0.00,,---,0.00,VWS V14.01,2013-03-18 18:28:00,
2013-03-18 14:30:00,40.0,34.7,30.19,East,92,5.0,12.0,81,0.00,,---,0.00,VWS V14.01,2013-03-18 18:30:00,
2013-03-18 14:33:00,40.0,35.9,30.15,ENE,78,4.0,11.0,85,0.00,,---,0.00,VWS V14.01,2013-03-18 18:33:00,
2013-03-18 14:38:00,40.1,36.5,30.14,East,100,3.0,11.0,87,0.00,,---,0.00,VWS V14.01,2013-03-18 18:38:00,
2013-03-18 14:43:00,40.1,36.5,30.14,East,96,3.0,11.0,87,0.00,,---,0.00,VWS V14.01,2013-03-18 18:43:00,
2013-03-18 14:48:00,40.1,37.1,30.14,East,93,7.0,11.0,89,0.00,,---,0.00,VWS V14.01,2013-03-18 18:48:00,
2013-03-18 14:53:00,40.1,37.4,30.13,East,98,3.0,11.0,90,0.00,,---,0.00,VWS V14.01,2013-03-18 18:53:00,
2013-03-18 14:58:00,40.1,37.7,30.12,ESE,107,7.0,11.0,91,0.00,,---,0.00,VWS V14.01,2013-03-18 18:58:00,
2013-03-18 15:00:00,39.8,35.1,30.17,ESE,107,3.0,14.0,83,0.00,,---,0.00,VWS V14.01,2013-03-18 19:00:00,
2013-03-18 15:03:00,40.3,38.2,30.12,East,81,3.0,10.0,92,0.00,,---,0.00,VWS V14.01,2013-03-18 19:03:00,
2013-03-18 15:08:00,40.5,38.4,30.12,ENE,73,1.0,10.0,92,0.00,,---,0.00,VWS V14.01,2013-03-18 19:08:00,
2013-03-18 15:13:00,40.7,38.8,30.12,East,90,10.0,10.0,93,0.00,,---,0.00,VWS V14.01,2013-03-18 19:13:00,
2013-03-18 15:18:00,40.8,38.9,30.11,ESE,119,3.0,10.0,93,0.00,,---,0.00,VWS V14.01,2013-03-18 19:18:00,
2013-03-18 15:23:00,40.9,39.0,30.11,NE,55,3.0,11.0,93,0.00,,---,0.00,VWS V14.01,2013-03-18 19:23:00,
2013-03-18 15:28:00,40.9,39.0,30.11,East,84,5.0,11.0,93,0.00,,---,0.00,VWS V14.01,2013-03-18 19:28:00,
2013-03-18 15:30:00,40.0,35.9,30.15,NNW,338,1.0,11.0,85,0.00,,---,0.00,VWS V14.01,2013-03-18 19:30:00,
2013-03-18 15:33:00,40.9,39.0,30.11,East,81,1.0,9.0,93,0.00,,---,0.00,VWS V14.01,2013-03-18 19:33:00,
2013-03-18 15:38:00,40.8,38.9,30.11,ENE,74,3.0,9.0,93,0.00,,---,0.00,VWS V14.01,2013-03-18 19:38:00,
2013-03-18 15:43:00,40.6,38.7,30.11,ENE,67,1.0,9.0,93,0.00,,---,0.00,VWS V14.01,2013-03-18 19:43:00,
2013-03-18 15:48:00,40.5,38.6,30.10,ENE,63,5.0,9.0,93,0.00,,---,0.00,VWS V14.01,2013-03-18 19:48:00,
2013-03-18 15:53:00,40.5,38.9,30.10,East,80,5.0,9.0,94,0.00,,---,0.00,VWS V14.01,2013-03-18 19:53:00,
2013-03-18 15:58:00,40.6,39.0,30.10,ESE,107,4.0,9.0,94,0.01,,---,0.01,VWS V14.01,2013-03-18 19:58:00,
2013-03-18 16:00:00,40.1,37.7,30.12,East,99,5.0,11.0,91,0.00,,---,0.00,VWS V14.01,2013-03-18 20:00:00,
2013-03-18 16:03:00,40.7,39.1,30.10,NE,47,5.0,12.0,94,0.01,,---,0.01,VWS V14.01,2013-03-18 20:03:00,
2013-03-18 16:08:00,40.8,39.2,30.09,East,87,5.0,12.0,94,0.01,,---,0.01,VWS V14.01,2013-03-18 20:08:00,
2013-03-18 16:13:00,40.7,39.1,30.09,ENE,76,3.0,12.0,94,0.01,,---,0.01,VWS V14.01,2013-03-18 20:13:00,
2013-03-18 16:18:00,40.5,38.9,30.09,NE,49,3.0,12.0,94,0.01,,---,0.01,VWS V14.01,2013-03-18 20:18:00,
2013-03-18 16:23:00,40.4,38.8,30.08,North,355,2.0,12.0,94,0.01,,---,0.01,VWS V14.01,2013-03-18 20:23:00,
2013-03-18 16:28:00,40.2,38.6,30.08,ENE,63,8.0,12.0,94,0.01,,---,0.01,VWS V14.01,2013-03-18 20:28:00,
2013-03-18 16:30:00,40.9,39.0,30.11,ENE,59,2.0,12.0,93,0.00,,---,0.00,VWS V14.01,2013-03-18 20:30:00,
2013-03-18 16:33:00,40.2,38.6,30.08,ESE,118,4.0,13.0,94,0.02,,---,0.02,VWS V14.01,2013-03-18 20:33:00,
2013-03-18 16:38:00,40.3,39.0,30.07,ENE,57,4.0,13.0,95,0.02,,---,0.02,VWS V14.01,2013-03-18 20:38:00,
2013-03-18 16:43:00,40.4,39.1,30.07,East,98,6.0,13.0,95,0.03,,---,0.03,VWS V14.01,2013-03-18 20:43:00,
2013-03-18 16:48:00,40.4,39.1,30.06,NE,44,3.0,13.0,95,0.03,,---,0.03,VWS V14.01,2013-03-18 20:48:00,
2013-03-18 16:53:00,40.5,39.2,30.07,NE,56,3.0,13.0,95,0.04,,---,0.04,VWS V14.01,2013-03-18 20:53:00,
2013-03-18 16:58:00,40.7,39.4,30.07,East,90,0.0,13.0,95,0.04,,---,0.04,VWS V14.01,2013-03-18 20:58:00,
2013-03-18 17:00:00,40.6,39.0,30.10,North,355,3.0,9.0,94,0.01,,---,0.01,VWS V14.01,2013-03-18 21:00:00,
2013-03-18 17:03:00,40.9,39.6,30.07,ENE,65,1.0,8.0,95,0.03,,---,0.04,VWS V14.01,2013-03-18 21:03:00,
2013-03-18 17:08:00,41.0,39.7,30.07,East,92,7.0,8.0,95,0.03,,---,0.04,VWS V14.01,2013-03-18 21:08:00,
2013-03-18 17:13:00,41.1,39.8,30.07,NW,307,0.0,8.0,95,0.04,,---,0.05,VWS V14.01,2013-03-18 21:13:00,
2013-03-18 17:18:00,41.1,39.8,30.07,ENE,74,1.0,8.0,95,0.04,,---,0.05,VWS V14.01,2013-03-18 21:18:00,
2013-03-18 17:23:00,41.2,39.9,30.06,East,90,1.0,8.0,95,0.04,,---,0.05,VWS V14.01,2013-03-18 21:23:00,
2013-03-18 17:28:00,41.5,40.5,30.06,East,88,5.0,8.0,96,0.05,,---,0.06,VWS V14.01,2013-03-18 21:28:00,
2013-03-18 17:30:00,40.2,38.6,30.08,East,88,3.0,12.0,94,0.01,,---,0.01,VWS V14.01,2013-03-18 21:30:00,
2013-03-18 17:33:00,41.7,40.4,30.05,ENE,76,3.0,9.0,95,0.05,,---,0.06,VWS V14.01,2013-03-18 21:33:00,
2013-03-18 17:38:00,41.8,40.8,30.04,ENE,67,3.0,9.0,96,0.06,,---,0.07,VWS V14.01,2013-03-18 21:38:00,
2013-03-18 17:43:00,41.9,40.8,30.04,ENE,78,1.0,11.0,96,0.06,,---,0.07,VWS V14.01,2013-03-18 21:43:00,
2013-03-18 17:48:00,41.9,40.8,30.04,ENE,67,4.0,11.0,96,0.06,,---,0.07,VWS V14.01,2013-03-18 21:48:00,
2013-03-18 17:53:00,41.9,40.8,30.03,ENE,63,4.0,11.0,96,0.07,,---,0.08,VWS V14.01,2013-03-18 21:53:00,
2013-03-18 17:58:00,41.9,40.8,30.03,East,86,3.0,11.0,96,0.07,,---,0.08,VWS V14.01,2013-03-18 21:58:00,
2013-03-18 18:00:00,40.8,39.5,30.07,ENE,63,1.0,13.0,95,0.04,,---,0.04,VWS V14.01,2013-03-18 22:00:00,
2013-03-18 18:03:00,42.0,40.9,30.03,East,90,9.0,9.0,96,0.04,,---,0.08,VWS V14.01,2013-03-18 22:03:00,
2013-03-18 18:08:00,42.0,40.9,30.03,ENE,61,2.0,9.0,96,0.04,,---,0.08,VWS V14.01,2013-03-18 22:08:00,
2013-03-18 18:13:00,42.0,40.9,30.03,East,93,6.0,9.0,96,0.04,,---,0.08,VWS V14.01,2013-03-18 22:13:00,
2013-03-18 18:18:00,42.1,41.0,30.02,NE,49,7.0,9.0,96,0.04,,---,0.08,VWS V14.01,2013-03-18 22:18:00,
2013-03-18 18:23:00,42.1,41.0,30.01,East,96,3.0,9.0,96,0.04,,---,0.08,VWS V14.01,2013-03-18 22:23:00,
2013-03-18 18:28:00,42.2,41.1,30.00,ENE,66,1.0,11.0,96,0.05,,---,0.09,VWS V14.01,2013-03-18 22:28:00,
2013-03-18 18:30:00,41.5,40.2,30.06,ENE,65,4.0,8.0,95,0.05,,---,0.06,VWS V14.01,2013-03-18 22:30:00,
2013-03-18 18:33:00,42.2,41.1,30.00,North,5,5.0,10.0,96,0.03,,---,0.09,VWS V14.01,2013-03-18 22:33:00,
2013-03-18 18:38:00,42.4,41.3,29.99,ENE,68,4.0,10.0,96,0.03,,---,0.09,VWS V14.01,2013-03-18 22:38:00,
2013-03-18 18:43:00,42.5,41.4,29.99,SE,127,4.0,10.0,96,0.03,,---,0.09,VWS V14.01,2013-03-18 22:43:00,
2013-03-18 18:48:00,42.5,41.4,29.99,East,93,6.0,10.0,96,0.03,,---,0.09,VWS V14.01,2013-03-18 22:48:00,
2013-03-18 18:53:00,42.6,41.5,29.99,South,176,3.0,10.0,96,0.03,,---,0.09,VWS V14.01,2013-03-18 22:53:00,
2013-03-18 18:58:00,42.7,41.6,29.98,ENE,78,5.0,10.0,96,0.03,,---,0.09,VWS V14.01,2013-03-18 22:58:00,
2013-03-18 19:00:00,42.0,40.9,30.03,East,84,3.0,11.0,96,0.07,,---,0.08,VWS V14.01,2013-03-18 23:00:00,
2013-03-18 19:03:00,42.7,41.6,29.98,East,101,2.0,10.0,96,0.01,,---,0.09,VWS V14.01,2013-03-18 23:03:00,
2013-03-18 19:08:00,42.9,41.8,29.98,ENE,65,2.0,10.0,96,0.01,,---,0.09,VWS V14.01,2013-03-18 23:08:00,
2013-03-18 19:13:00,43.1,42.0,29.97,NE,53,5.0,10.0,96,0.01,,---,0.09,VWS V14.01,2013-03-18 23:13:00,
2013-03-18 19:18:00,43.1,42.0,29.97,East,84,5.0,10.0,96,0.01,,---,0.09,VWS V14.01,2013-03-18 23:18:00,
2013-03-18 19:23:00,43.2,42.1,29.96,ENE,72,2.0,10.0,96,0.01,,---,0.09,VWS V14.01,2013-03-18 23:23:00,
2013-03-18 19:28:00,43.2,42.1,29.96,SE,146,8.0,10.0,96,0.01,,---,0.09,VWS V14.01,2013-03-18 23:28:00,
2013-03-18 19:30:00,42.2,41.1,30.00,SSE,155,3.0,11.0,96,0.05,,---,0.09,VWS V14.01,2013-03-18 23:30:00,
2013-03-18 19:33:00,43.3,42.2,29.95,ESE,109,3.0,8.0,96,0.00,,---,0.09,VWS V14.01,2013-03-18 23:33:00,
2013-03-18 19:38:00,43.4,42.3,29.94,East,88,1.0,13.0,96,0.00,,---,0.09,VWS V14.01,2013-03-18 23:38:00,
2013-03-18 19:43:00,43.4,42.3,29.95,ENE,73,3.0,13.0,96,0.00,,---,0.09,VWS V14.01,2013-03-18 23:43:00,
2013-03-18 19:48:00,43.6,42.5,29.95,East,81,2.0,13.0,96,0.00,,---,0.09,VWS V14.01,2013-03-18 23:48:00,
2013-03-18 19:53:00,43.6,42.5,29.95,East,82,7.0,13.0,96,0.00,,---,0.09,VWS V14.01,2013-03-18 23:53:00,
2013-03-18 19:57:00,43.8,42.7,29.95,SE,143,2.0,13.0,96,0.00,,---,0.09,VWS V14.01,2013-03-18 23:57:00,
2013-03-18 20:00:00,42.7,41.6,29.99,East,94,8.0,10.0,96,0.03,,---,0.09,VWS V14.01,2013-03-19 00:00:00,
2013-03-18 20:03:00,43.9,42.8,29.94,ESE,105,4.0,7.0,96,0.00,,---,0.09,VWS V14.01,2013-03-19 00:03:00,
2013-03-18 20:07:00,44.0,42.9,29.94,East,87,6.0,7.0,96,0.00,,---,0.09,VWS V14.01,2013-03-19 00:07:00,
2013-03-18 20:12:00,44.1,43.0,29.94,East,98,7.0,8.0,96,0.01,,---,0.10,VWS V14.01,2013-03-19 00:12:00,
2013-03-18 20:17:00,44.1,43.0,29.94,SE,139,7.0,8.0,96,0.02,,---,0.11,VWS V14.01,2013-03-19 00:17:00,
2013-03-18 20:22:00,44.1,43.0,29.93,East,87,1.0,8.0,96,0.03,,---,0.12,VWS V14.01,2013-03-19 00:22:00,
2013-03-18 20:27:00,44.2,43.1,29.93,East,86,2.0,9.0,96,0.04,,---,0.13,VWS V14.01,2013-03-19 00:27:00,
2013-03-18 20:30:00,43.2,42.1,29.95,North,360,3.0,10.0,96,0.01,,---,0.09,VWS V14.01,2013-03-19 00:30:00,
2013-03-18 20:32:00,44.2,43.1,29.93,East,92,2.0,9.0,96,0.05,,---,0.14,VWS V14.01,2013-03-19 00:32:00,
2013-03-18 20:37:00,44.2,43.1,29.93,ENE,69,2.0,9.0,96,0.05,,---,0.14,VWS V14.01,2013-03-19 00:37:00,
2013-03-18 20:42:00,44.3,43.2,29.93,ENE,57,0.0,10.0,96,0.05,,---,0.14,VWS V14.01,2013-03-19 00:42:00,
2013-03-18 20:47:00,44.3,43.2,29.93,ESE,117,1.0,10.0,96,0.07,,---,0.16,VWS V14.01,2013-03-19 00:47:00,
2013-03-18 20:52:00,44.4,43.3,29.92,NE,45,1.0,10.0,96,0.08,,---,0.17,VWS V14.01,2013-03-19 00:52:00,
2013-03-18 20:57:00,44.5,43.4,29.92,NE,56,2.0,10.0,96,0.08,,---,0.17,VWS V14.01,2013-03-19 00:57:00,
2013-03-18 21:00:00,43.8,42.7,29.94,ESE,123,1.0,13.0,96,0.00,,---,0.09,VWS V14.01,2013-03-19 01:00:00,
2013-03-18 21:02:00,44.5,43.4,29.92,ESE,108,2.0,8.0,96,0.09,,---,0.18,VWS V14.01,2013-03-19 01:02:00,
2013-03-18 21:07:00,44.6,43.5,29.91,NNE,31,0.0,8.0,96,0.09,,---,0.18,VWS V14.01,2013-03-19 01:07:00,
2013-03-18 21:12:00,44.6,43.5,29.91,ESE,107,2.0,8.0,96,0.10,,---,0.19,VWS V14.01,2013-03-19 01:12:00,
2013-03-18 21:17:00,44.7,43.6,29.91,NE,51,1.0,8.0,96,0.10,,---,0.19,VWS V14.01,2013-03-19 01:17:00,
2013-03-18 21:22:00,44.8,43.7,29.91,SSE,159,4.0,8.0,96,0.11,,---,0.20,VWS V14.01,2013-03-19 01:22:00,
2013-03-18 21:27:00,44.8,43.7,29.90,SSE,156,0.0,8.0,96,0.11,,---,0.20,VWS V14.01,2013-03-19 01:27:00,
2013-03-18 21:30:00,44.2,43.1,29.93,ENE,76,1.0,9.0,96,0.04,,---,0.13,VWS V14.01,2013-03-19 01:30:00,
2013-03-18 21:32:00,44.9,43.8,29.90,NE,38,2.0,3.0,96,0.07,,---,0.20,VWS V14.01,2013-03-19 01:32:00,
2013-03-18 21:37:00,44.9,43.8,29.90,NE,38,0.0,3.0,96,0.08,,---,0.21,VWS V14.01,2013-03-19 01:37:00,
2013-03-18 21:43:00,45.1,44.0,29.89,East,80,1.0,4.0,96,0.09,,---,0.22,VWS V14.01,2013-03-19 01:43:00,
2013-03-18 21:48:00,45.3,44.5,29.89,South,173,2.0,4.0,97,0.10,,---,0.23,VWS V14.01,2013-03-19 01:48:00,
2013-03-18 21:53:00,45.6,44.8,29.88,SW,219,2.0,6.0,97,0.10,,---,0.23,VWS V14.01,2013-03-19 01:53:00,
2013-03-18 21:58:00,45.8,45.0,29.88,NE,42,2.0,8.0,97,0.10,,---,0.23,VWS V14.01,2013-03-19 01:58:00,
2013-03-18 22:00:00,44.5,43.4,29.92,ENE,59,3.0,10.0,96,0.08,,---,0.17,VWS V14.01,2013-03-19 02:00:00,
2013-03-18 22:03:00,46.1,45.3,29.88,ESE,105,3.0,8.0,97,0.06,,---,0.23,VWS V14.01,2013-03-19 02:03:00,
2013-03-18 22:08:00,46.2,45.4,29.88,NE,55,0.0,8.0,97,0.08,,---,0.25,VWS V14.01,2013-03-19 02:08:00,
2013-03-18 22:13:00,46.3,45.5,29.88,NE,52,0.0,8.0,97,0.08,,---,0.25,VWS V14.01,2013-03-19 02:13:00,
2013-03-18 22:18:00,46.3,45.5,29.88,NE,42,0.0,8.0,97,0.09,,---,0.26,VWS V14.01,2013-03-19 02:18:00,
2013-03-18 22:23:00,46.2,45.4,29.88,NE,42,0.0,8.0,97,0.11,,---,0.28,VWS V14.01,2013-03-19 02:23:00,
2013-03-18 22:28:00,46.2,45.1,29.88,NE,42,0.0,8.0,96,0.15,,---,0.32,VWS V14.01,2013-03-19 02:28:00,
2013-03-18 22:30:00,44.9,43.8,29.90,NE,38,0.0,8.0,96,0.11,,---,0.20,VWS V14.01,2013-03-19 02:30:00,
2013-03-18 22:33:00,46.2,45.1,29.87,WNW,302,1.0,3.0,96,0.17,,---,0.37,VWS V14.01,2013-03-19 02:33:00,
2013-03-18 22:38:00,46.2,45.1,29.86,ESE,121,3.0,4.0,96,0.22,,---,0.42,VWS V14.01,2013-03-19 02:38:00,
2013-03-18 22:43:00,46.5,45.7,29.85,NNW,331,0.0,8.0,97,0.23,,---,0.43,VWS V14.01,2013-03-19 02:43:00,
2013-03-18 22:48:00,47.1,46.3,29.86,SSE,158,5.0,12.0,97,0.24,,---,0.45,VWS V14.01,2013-03-19 02:48:00,
2013-03-18 22:53:00,47.3,46.5,29.85,SSE,157,2.0,12.0,97,0.27,,---,0.47,VWS V14.01,2013-03-19 02:53:00,
2013-03-18 22:58:00,47.4,46.6,29.85,NE,38,2.0,12.0,97,0.29,,---,0.49,VWS V14.01,2013-03-19 02:58:00,
2013-03-18 23:00:00,45.9,45.1,29.88,East,86,6.0,8.0,97,0.10,,---,0.23,VWS V14.01,2013-03-19 03:00:00,
2013-03-18 23:03:00,47.5,46.7,29.84,South,171,3.0,8.0,97,0.28,,---,0.51,VWS V14.01,2013-03-19 03:03:00,
2013-03-18 23:08:00,47.5,46.7,29.85,West,260,2.0,8.0,97,0.29,,---,0.52,VWS V14.01,2013-03-19 03:08:00,
2013-03-18 23:13:00,47.5,46.7,29.88,WSW,257,2.0,8.0,97,0.30,,---,0.53,VWS V14.01,2013-03-19 03:13:00,
2013-03-18 23:18:00,47.5,46.7,29.85,North,5,0.0,8.0,97,0.32,,---,0.55,VWS V14.01,2013-03-19 03:18:00,
2013-03-18 23:23:00,47.4,46.6,29.85,North,5,0.0,8.0,97,0.33,,---,0.56,VWS V14.01,2013-03-19 03:23:00,
2013-03-18 23:28:00,47.4,46.3,29.85,North,5,0.0,8.0,96,0.34,,---,0.57,VWS V14.01,2013-03-19 03:28:00,
2013-03-18 23:30:00,46.2,45.1,29.88,WNW,302,3.0,8.0,96,0.17,,---,0.34,VWS V14.01,2013-03-19 03:30:00,
2013-03-18 23:33:00,47.3,46.2,29.85,North,5,0.0,1.0,96,0.24,,---,0.58,VWS V14.01,2013-03-19 03:33:00,
2013-03-18 23:38:00,47.2,46.1,29.84,North,5,0.0,1.0,96,0.24,,---,0.58,VWS V14.01,2013-03-19 03:38:00,
2013-03-18 23:43:00,47.3,46.2,29.84,North,5,0.0,2.0,96,0.25,,---,0.59,VWS V14.01,2013-03-19 03:43:00,
2013-03-18 23:48:00,47.4,46.3,29.83,North,5,0.0,2.0,96,0.25,,---,0.59,VWS V14.01,2013-03-19 03:48:00,
2013-03-18 23:53:00,47.5,46.7,29.83,North,5,0.0,2.0,97,0.25,,---,0.59,VWS V14.01,2013-03-19 03:53:00,
2013-03-18 23:58:00,47.7,46.9,29.82,North,5,1.0,2.0,97,0.25,,---,0.59,VWS V14.01,2013-03-19 03:58:00,